createdAt,value
2019-01-18T00:00:34.952Z,24.53
2019-01-18T00:03:03.320Z,24.20
2019-01-18T00:05:33.313Z,26.40
2019-01-18T00:08:01.630Z,24.20
2019-01-18T00:10:30.642Z,29.07
2019-01-18T00:12:58.929Z,24.27
2019-01-18T00:15:28.830Z,34.30
2019-01-18T00:17:57.139Z,26.87
2019-01-18T00:20:26.685Z,30.43
2019-01-18T00:23:14.434Z,32.60
2019-01-18T00:25:43.228Z,32.70
2019-01-18T00:28:14.557Z,36.03
2019-01-18T00:30:42.892Z,32.80
2019-01-18T00:33:13.285Z,31.97
2019-01-18T00:35:41.574Z,27.80
2019-01-18T00:38:13.077Z,28.03
2019-01-18T00:40:41.379Z,26.40
2019-01-18T00:43:09.655Z,30.83
2019-01-18T00:45:37.927Z,26.45
2019-01-18T00:48:06.258Z,29.75
2019-01-18T00:50:35.982Z,31.17
2019-01-18T00:53:07.087Z,21.70
2019-01-18T00:55:39.566Z,36.10
2019-01-18T00:58:07.836Z,30.27
2019-01-18T01:00:38.754Z,26.48
2019-01-18T01:03:07.338Z,28.90
2019-01-18T01:05:35.608Z,31.60
2019-01-18T01:08:03.876Z,22.93
2019-01-18T01:10:33.313Z,29.97
2019-01-18T01:13:04.521Z,28.43
2019-01-18T01:15:32.799Z,26.50
2019-01-18T01:18:01.107Z,20.45
2019-01-18T01:20:32.325Z,25.67
2019-01-18T01:23:00.784Z,20.97
2019-01-18T01:25:30.675Z,25.08
2019-01-18T01:28:01.279Z,23.57
2019-01-18T01:30:30.226Z,26.20
2019-01-18T01:32:58.609Z,29.30
2019-01-18T01:35:26.951Z,27.13
2019-01-18T01:37:55.365Z,30.37
2019-01-18T01:40:26.135Z,31.07
2019-01-18T01:42:54.411Z,31.20
2019-01-18T01:45:22.751Z,23.40
2019-01-18T01:47:51.090Z,25.48
2019-01-18T01:50:21.897Z,27.80
2019-01-18T01:52:51.093Z,21.45
2019-01-18T01:55:19.404Z,25.60
2019-01-18T01:57:47.779Z,25.50
2019-01-18T02:00:40.004Z,25.17
2019-01-18T02:03:10.085Z,28.10
2019-01-18T02:05:38.435Z,33.23
2019-01-18T02:08:06.697Z,24.57
2019-01-18T02:10:38.277Z,29.92
2019-01-18T02:13:06.556Z,29.57
2019-01-18T02:15:34.935Z,30.57
2019-01-18T02:18:03.261Z,23.10
2019-01-18T02:20:33.244Z,24.80
2019-01-18T02:23:01.584Z,27.90
2019-01-18T02:25:33.076Z,24.98
2019-01-18T02:28:02.993Z,25.57
2019-01-18T02:30:34.881Z,32.43
2019-01-18T02:33:24.524Z,25.07
2019-01-18T02:35:52.597Z,28.98
2019-01-18T02:38:20.880Z,24.43
2019-01-18T02:40:50.392Z,24.57
2019-01-18T02:43:18.682Z,26.23
2019-01-18T02:45:48.720Z,23.40
2019-01-18T02:48:19.939Z,25.43
2019-01-18T02:50:48.285Z,28.47
2019-01-18T02:53:32.401Z,37.07
2019-01-18T02:56:00.688Z,29.07
2019-01-18T02:58:28.964Z,34.30
2019-01-18T03:01:00.692Z,26.37
2019-01-18T03:03:29.076Z,30.87
2019-01-18T03:05:58.376Z,34.67
2019-01-18T03:08:26.846Z,27.00
2019-01-18T03:10:55.154Z,31.77
2019-01-18T03:13:25.893Z,31.87
2019-01-18T03:15:55.868Z,26.33
2019-01-18T03:18:24.278Z,26.25
2019-01-18T03:20:54.283Z,39.07
2019-01-18T03:23:29.050Z,28.07
2019-01-18T03:25:57.428Z,30.73
2019-01-18T03:28:27.402Z,31.17
2019-01-18T03:30:55.687Z,40.77
2019-01-18T03:33:27.837Z,29.07
2019-01-18T03:35:58.482Z,29.67
2019-01-18T03:38:26.763Z,31.27
2019-01-18T03:40:56.039Z,37.03
2019-01-18T03:43:24.325Z,29.90
2019-01-18T03:45:52.697Z,38.67
2019-01-18T03:48:22.026Z,40.67
2019-01-18T03:50:50.293Z,38.70
2019-01-18T03:53:18.580Z,44.10
2019-01-18T03:55:46.899Z,44.63
2019-01-18T03:58:15.175Z,41.57
2019-01-18T04:00:44.043Z,50.40
2019-01-18T04:03:12.479Z,50.93
2019-01-18T04:05:40.904Z,49.47
2019-01-18T04:08:10.887Z,41.20
2019-01-18T04:10:39.643Z,55.53
2019-01-18T04:13:11.873Z,43.30
2019-01-18T04:15:42.457Z,43.43
2019-01-18T04:18:13.527Z,40.73
2019-01-18T04:20:41.813Z,39.87
2019-01-18T04:23:10.181Z,45.90
2019-01-18T04:25:40.914Z,37.65
2019-01-18T04:28:09.198Z,37.30
2019-01-18T04:30:40.251Z,37.23
2019-01-18T04:33:08.536Z,34.53
2019-01-18T04:35:36.826Z,37.27
2019-01-18T04:38:05.143Z,33.33
2019-01-18T04:40:33.427Z,35.27
2019-01-18T04:43:24.199Z,36.43
2019-01-18T04:45:52.485Z,45.43
2019-01-18T04:48:21.836Z,48.58
2019-01-18T04:50:50.225Z,51.70
2019-01-18T04:53:18.573Z,49.27
2019-01-18T04:55:48.666Z,43.40
2019-01-18T04:58:16.981Z,51.63
2019-01-18T05:00:45.257Z,39.83
2019-01-18T05:03:13.561Z,43.93
2019-01-18T05:05:42.289Z,53.37
2019-01-18T05:08:10.589Z,53.30
2019-01-18T05:10:38.881Z,64.35
2019-01-18T05:13:29.260Z,63.40
2019-01-18T05:15:57.568Z,58.97
2019-01-18T05:18:27.987Z,53.27
2019-01-18T05:20:55.891Z,41.50
2019-01-18T05:23:24.266Z,48.43
2019-01-18T05:25:54.262Z,49.80
2019-01-18T05:28:22.834Z,47.30
2019-01-18T05:30:51.119Z,44.13
2019-01-18T05:33:19.628Z,43.43
2019-01-18T05:35:50.541Z,42.67
2019-01-18T05:38:18.824Z,54.43
2019-01-18T05:40:49.773Z,52.77
2019-01-18T05:43:19.023Z,47.57
2019-01-18T05:45:47.304Z,45.50
2019-01-18T05:48:15.577Z,53.57
2019-01-18T05:50:45.165Z,49.27
2019-01-18T05:53:13.828Z,46.73
2019-01-18T05:55:42.163Z,47.90
2019-01-18T05:58:10.506Z,38.27
2019-01-18T06:03:29.068Z,54.23
2019-01-18T06:05:57.350Z,63.77
2019-01-18T06:08:27.114Z,55.17
2019-01-18T06:10:57.776Z,46.23
2019-01-18T06:13:27.132Z,39.90
2019-01-18T06:15:55.436Z,36.90
2019-01-18T06:18:25.231Z,29.03
2019-01-18T06:20:53.538Z,29.87
2019-01-18T06:23:21.899Z,23.85
2019-01-18T06:25:50.296Z,30.73
2019-01-18T06:28:21.179Z,30.40
2019-01-18T06:30:49.473Z,29.00
2019-01-18T06:33:20.229Z,31.80
2019-01-18T06:35:48.550Z,36.17
2019-01-18T06:38:20.144Z,37.33
2019-01-18T06:40:49.847Z,43.50
2019-01-18T06:43:18.708Z,35.87
2019-01-18T06:48:39.452Z,35.30
2019-01-18T06:51:08.274Z,31.83
2019-01-18T06:53:41.818Z,31.60
2019-01-18T06:56:12.007Z,32.27
2019-01-18T06:58:42.058Z,29.03
2019-01-18T07:01:13.207Z,30.13
2019-01-18T07:03:41.756Z,37.57
2019-01-18T07:06:11.041Z,39.93
2019-01-18T07:08:39.463Z,32.87
2019-01-18T07:11:09.452Z,31.00
2019-01-18T07:13:37.782Z,27.07
2019-01-18T07:16:07.323Z,37.27
2019-01-18T07:18:39.015Z,36.60
2019-01-18T07:21:07.291Z,36.43
2019-01-18T07:23:38.547Z,34.93
2019-01-18T07:26:28.075Z,29.07
2019-01-18T07:28:56.363Z,31.85
2019-01-18T07:31:28.331Z,29.87
2019-01-18T07:33:58.748Z,30.07
2019-01-18T07:36:27.032Z,31.90
2019-01-18T07:39:00.468Z,39.27
2019-01-18T07:41:25.335Z,32.90
2019-01-18T07:43:53.657Z,41.90
2019-01-18T07:46:21.940Z,45.75
2019-01-18T07:48:52.844Z,39.63
2019-01-18T07:51:21.187Z,34.50
2019-01-18T07:53:49.542Z,30.63
2019-01-18T07:56:17.921Z,30.95
2019-01-18T07:58:46.341Z,30.73
2019-01-18T08:01:15.227Z,31.90
2019-01-18T08:03:43.675Z,42.83
2019-01-18T08:06:34.431Z,49.47
2019-01-18T08:09:02.801Z,40.33
2019-01-18T08:11:31.102Z,50.40
2019-01-18T08:13:59.991Z,51.30
2019-01-18T08:16:29.493Z,54.73
2019-01-18T08:18:57.813Z,58.60
2019-01-18T08:21:27.540Z,56.13
2019-01-18T08:23:55.890Z,64.60
2019-01-18T08:26:24.269Z,53.77
2019-01-18T08:28:55.869Z,70.47
2019-01-18T08:31:28.920Z,58.50
2019-01-18T08:33:54.289Z,58.63
2019-01-18T08:36:26.715Z,53.53
2019-01-18T08:38:56.285Z,51.93
2019-01-18T08:41:24.644Z,45.30
2019-01-18T08:43:53.246Z,38.07
2019-01-18T08:46:24.348Z,36.45
2019-01-18T08:49:14.221Z,37.67
2019-01-18T08:51:44.162Z,38.20
2019-01-18T08:54:12.732Z,35.70
2019-01-18T08:56:43.949Z,31.97
2019-01-18T08:59:13.929Z,29.00
2019-01-18T09:01:42.233Z,34.73
2019-01-18T09:04:10.547Z,37.20
2019-01-18T09:06:40.552Z,32.30
2019-01-18T09:09:08.824Z,31.70
2019-01-18T09:11:37.753Z,38.67
2019-01-18T09:14:06.137Z,40.17
2019-01-18T09:16:34.758Z,29.23
2019-01-18T09:19:03.176Z,28.15
2019-01-18T09:21:31.454Z,54.97
2019-01-18T09:24:00.012Z,28.43
2019-01-18T09:26:29.981Z,28.25
2019-01-18T09:28:58.259Z,27.47
2019-01-18T09:31:28.168Z,25.87
2019-01-18T09:33:57.827Z,37.07
2019-01-18T09:36:26.246Z,24.60
2019-01-18T09:38:54.518Z,29.90
2019-01-18T09:41:22.898Z,25.40
2019-01-18T09:43:57.491Z,30.37
2019-01-18T09:46:27.472Z,34.70
2019-01-18T09:48:57.446Z,31.27
2019-01-18T09:51:26.846Z,36.63
2019-01-18T09:53:59.061Z,34.97
2019-01-18T09:56:27.365Z,37.30
2019-01-18T09:58:57.472Z,39.30
2019-01-18T10:01:28.419Z,35.63
2019-01-18T10:03:58.424Z,25.43
2019-01-18T10:06:31.280Z,32.13
2019-01-18T10:08:59.556Z,33.57
2019-01-18T10:11:28.614Z,26.63
2019-01-18T10:14:00.122Z,30.08
2019-01-18T10:16:30.083Z,36.43
2019-01-18T10:19:00.798Z,28.73
2019-01-18T10:21:30.499Z,29.63
2019-01-18T10:24:00.908Z,35.50
2019-01-18T10:26:31.919Z,72.43
2019-01-18T10:29:00.251Z,90.10
2019-01-18T10:31:29.542Z,148.13
2019-01-18T10:34:00.411Z,170.13
2019-01-18T10:36:34.939Z,165.43
2019-01-18T10:39:09.743Z,177.25
2019-01-18T10:41:42.219Z,507.50
2019-01-18T10:44:10.509Z,256.23
2019-01-18T10:46:40.348Z,438.47
2019-01-18T10:49:09.714Z,280.10
2019-01-18T10:51:38.110Z,407.93
2019-01-18T10:54:09.413Z,182.80
2019-01-18T10:56:39.414Z,159.13
2019-01-18T10:59:10.971Z,156.33
2019-01-18T11:01:39.331Z,144.47
2019-01-18T11:04:09.291Z,178.57
2019-01-18T11:06:37.776Z,133.10
2019-01-18T11:09:09.285Z,403.97
2019-01-18T11:11:41.989Z,146.37
2019-01-18T11:14:11.943Z,120.37
2019-01-18T11:16:42.396Z,122.77
2019-01-18T11:19:10.697Z,203.13
2019-01-18T11:21:39.059Z,115.70
2019-01-18T11:24:07.356Z,102.93
2019-01-18T11:26:35.631Z,124.53
2019-01-18T11:29:08.203Z,141.80
2019-01-18T11:31:36.573Z,90.00
2019-01-18T11:34:09.426Z,84.90
2019-01-18T11:36:37.781Z,91.82
2019-01-18T11:39:09.199Z,98.90
2019-01-18T11:41:37.556Z,91.13
2019-01-18T11:44:09.111Z,74.93
2019-01-18T11:46:37.429Z,74.67
2019-01-18T11:49:20.697Z,95.83
2019-01-18T11:51:49.025Z,142.47
2019-01-18T11:54:18.416Z,108.33
2019-01-18T11:56:46.738Z,88.20
2019-01-18T11:59:15.075Z,74.13
2019-01-18T12:01:43.350Z,77.57
2019-01-18T12:04:13.971Z,130.77
2019-01-18T12:06:42.289Z,86.53
2019-01-18T12:09:10.568Z,155.73
2019-01-18T12:11:38.855Z,88.52
2019-01-18T12:14:09.042Z,108.37
2019-01-18T12:16:37.315Z,87.80
2019-01-18T12:19:05.598Z,103.63
2019-01-18T12:21:37.271Z,54.95
2019-01-18T12:24:03.914Z,61.13
2019-01-18T12:26:33.492Z,61.77
2019-01-18T12:29:01.870Z,49.80
2019-01-18T12:31:33.492Z,60.07
2019-01-18T12:34:08.253Z,80.87
2019-01-18T12:36:37.870Z,46.77
2019-01-18T12:39:10.733Z,57.30
2019-01-18T12:41:42.046Z,67.83
2019-01-18T12:44:10.394Z,73.03
2019-01-18T12:46:38.750Z,74.93
2019-01-18T12:49:08.318Z,44.73
2019-01-18T12:51:40.420Z,64.83
2019-01-18T12:54:08.757Z,43.70
2019-01-18T12:56:39.978Z,55.92
2019-01-18T12:59:09.959Z,49.37
2019-01-18T13:01:39.429Z,43.08
2019-01-18T13:04:08.312Z,45.73
2019-01-18T13:06:38.322Z,48.23
2019-01-18T13:09:06.933Z,45.90
2019-01-18T13:11:35.258Z,36.10
2019-01-18T13:14:06.773Z,48.10
2019-01-18T13:16:35.113Z,45.20
2019-01-18T13:19:06.370Z,98.20
2019-01-18T13:21:34.881Z,110.42
2019-01-18T13:24:05.600Z,146.17
2019-01-18T13:26:33.877Z,115.50
2019-01-18T13:29:05.368Z,156.15
2019-01-18T13:31:35.254Z,127.33
2019-01-18T13:34:09.785Z,124.67
2019-01-18T13:36:41.064Z,97.17
2019-01-18T13:39:10.294Z,112.90
2019-01-18T13:41:40.186Z,115.93
2019-01-18T13:44:08.520Z,75.60
2019-01-18T13:46:36.794Z,107.77
2019-01-18T13:49:07.016Z,87.53
2019-01-18T13:51:36.422Z,145.33
2019-01-18T13:54:05.089Z,108.20
2019-01-18T13:56:36.129Z,86.40
2019-01-18T13:59:04.477Z,226.17
2019-01-18T14:01:35.578Z,185.50
2019-01-18T14:04:06.511Z,105.53
2019-01-18T14:06:34.910Z,113.30
2019-01-18T14:09:10.805Z,88.50
2019-01-18T14:11:39.135Z,143.50
2019-01-18T14:14:08.836Z,113.00
2019-01-18T14:16:39.652Z,93.53
2019-01-18T14:19:08.005Z,132.67
2019-01-18T14:21:36.409Z,104.17
2019-01-18T14:24:06.273Z,95.57
2019-01-18T14:26:35.895Z,74.10
2019-01-18T14:29:05.593Z,66.90
2019-01-18T14:31:34.070Z,71.82
2019-01-18T14:34:03.769Z,73.17
2019-01-18T14:36:32.173Z,107.43
2019-01-18T14:39:00.451Z,124.40
2019-01-18T14:41:31.067Z,100.13
2019-01-18T14:44:02.638Z,101.47
2019-01-18T14:46:33.881Z,97.13
2019-01-18T14:49:02.175Z,87.57
2019-01-18T14:51:33.303Z,92.20
2019-01-18T14:54:01.577Z,100.77
2019-01-18T14:56:33.785Z,98.77
2019-01-18T14:59:02.260Z,99.97
2019-01-18T15:01:32.440Z,98.53
2019-01-18T15:04:00.791Z,80.30
2019-01-18T15:06:38.304Z,80.33
2019-01-18T15:09:08.718Z,78.07
2019-01-18T15:11:38.625Z,85.60
2019-01-18T15:14:07.025Z,76.85
2019-01-18T15:16:38.182Z,82.87
2019-01-18T15:19:06.548Z,72.82
2019-01-18T15:21:34.913Z,82.97
2019-01-18T15:24:03.281Z,71.57
2019-01-18T15:26:34.667Z,65.77
2019-01-18T15:29:04.451Z,84.58
2019-01-18T15:31:34.273Z,70.40
2019-01-18T15:34:02.625Z,80.60
2019-01-18T15:36:30.983Z,80.53
2019-01-18T15:39:22.039Z,70.77
2019-01-18T15:41:53.975Z,67.58
2019-01-18T15:44:22.258Z,72.65
2019-01-18T15:46:50.536Z,70.20
2019-01-18T15:49:18.861Z,82.07
2019-01-18T15:51:50.204Z,74.53
2019-01-18T15:54:21.345Z,77.00
2019-01-18T15:56:51.290Z,82.37
2019-01-18T15:59:19.605Z,107.47
2019-01-18T16:01:52.212Z,111.80
2019-01-18T16:04:20.719Z,582.40
2019-01-18T16:06:54.310Z,514.83
2019-01-18T16:09:30.390Z,470.67
2019-01-18T16:12:02.118Z,219.97
2019-01-18T16:14:30.457Z,366.53
2019-01-18T16:17:01.524Z,252.67
2019-01-18T16:19:29.926Z,213.80
2019-01-18T16:21:59.880Z,184.00
2019-01-18T16:24:32.009Z,217.43
2019-01-18T16:27:00.306Z,111.00
2019-01-18T16:29:30.306Z,329.50
2019-01-18T16:31:58.611Z,292.93
2019-01-18T16:34:29.363Z,322.95
2019-01-18T16:36:57.652Z,190.13
2019-01-18T16:39:28.794Z,175.90
2019-01-18T16:41:59.156Z,194.95
2019-01-18T16:44:30.456Z,202.03
2019-01-18T16:47:00.804Z,140.05
2019-01-18T16:49:29.149Z,173.62
2019-01-18T16:52:02.153Z,344.83
2019-01-18T16:54:30.580Z,363.15
2019-01-18T16:57:07.055Z,508.70
2019-01-18T16:59:35.926Z,335.25
2019-01-18T17:02:04.204Z,288.43
2019-01-18T17:04:33.886Z,225.93
2019-01-18T17:07:03.253Z,256.53
2019-01-18T17:09:31.622Z,240.17
2019-01-18T17:11:59.999Z,188.93
2019-01-18T17:14:28.339Z,174.77
2019-01-18T17:17:02.479Z,221.83
2019-01-18T17:19:33.890Z,237.53
2019-01-18T17:22:05.348Z,241.17
2019-01-18T17:24:36.575Z,238.07
2019-01-18T17:27:04.990Z,249.50
2019-01-18T17:29:33.251Z,266.23
2019-01-18T17:32:03.987Z,218.03
2019-01-18T17:34:32.465Z,401.57
2019-01-18T17:37:01.890Z,350.50
2019-01-18T17:39:33.509Z,222.37
2019-01-18T17:42:14.093Z,210.00
2019-01-18T17:45:05.054Z,217.55
2019-01-18T17:47:52.795Z,195.30
2019-01-18T17:50:40.617Z,225.35
2019-01-18T17:53:20.188Z,213.33
2019-01-18T17:56:15.269Z,246.77
2019-01-18T17:59:12.343Z,251.07
2019-01-18T18:01:55.745Z,200.80
2019-01-18T18:04:45.419Z,237.00
2019-01-18T18:07:26.139Z,219.63
2019-01-18T18:10:00.417Z,191.80
2019-01-18T18:12:40.491Z,219.80
2019-01-18T18:15:35.022Z,211.52
2019-01-18T18:18:09.317Z,236.60
2019-01-18T18:20:49.830Z,185.97
2019-01-18T18:23:33.685Z,180.77
2019-01-18T18:26:32.352Z,175.03
2019-01-18T18:29:38.385Z,187.90
2019-01-18T18:32:45.338Z,186.03
2019-01-18T18:35:35.785Z,231.23
2019-01-18T18:38:25.297Z,186.37
2019-01-18T18:41:17.336Z,172.63
2019-01-18T18:44:12.629Z,164.87
2019-01-18T18:47:18.857Z,160.63
2019-01-18T18:49:56.092Z,181.23
2019-01-18T18:53:02.753Z,146.97
2019-01-18T18:55:35.369Z,149.50
2019-01-18T19:01:33.703Z,213.67
2019-01-18T19:04:19.347Z,170.47
2019-01-18T19:07:19.136Z,178.60
2019-01-18T19:09:51.996Z,204.30
2019-01-18T19:12:40.108Z,182.13
2019-01-18T19:15:32.625Z,145.70
2019-01-18T19:18:09.756Z,151.85
2019-01-18T19:21:02.065Z,208.05
2019-01-18T19:23:53.404Z,181.33
2019-01-18T19:26:59.210Z,147.20
2019-01-18T19:29:48.581Z,148.53
2019-01-18T19:32:44.245Z,141.00
2019-01-18T19:35:39.213Z,142.73
2019-01-18T19:38:29.976Z,111.20
2019-01-18T19:41:04.284Z,114.40
2019-01-18T19:43:50.700Z,93.80
2019-01-18T19:46:55.940Z,115.37
2019-01-18T19:49:46.543Z,109.83
2019-01-18T19:52:27.124Z,113.92
2019-01-18T19:55:04.238Z,99.80
2019-01-18T19:58:02.815Z,99.47
2019-01-18T20:00:38.679Z,182.03
2019-01-18T20:03:34.216Z,145.97
2019-01-18T20:06:35.477Z,91.83
2019-01-18T20:09:31.835Z,106.97
2019-01-18T20:12:06.288Z,116.57
2019-01-18T20:14:47.940Z,140.97
2019-01-18T20:17:28.379Z,127.20
2019-01-18T20:20:05.792Z,183.78
2019-01-18T20:23:11.924Z,144.60
2019-01-18T20:28:55.309Z,123.83
2019-01-18T20:31:50.863Z,134.87
2019-01-18T20:34:57.734Z,119.13
2019-01-18T20:37:49.843Z,133.50
2019-01-18T20:40:42.868Z,122.57
2019-01-18T20:43:33.452Z,116.10
2019-01-18T20:46:25.641Z,119.87
2019-01-18T20:49:19.387Z,161.83
2019-01-18T20:51:56.772Z,121.53
2019-01-18T20:54:51.165Z,135.20
2019-01-18T20:57:46.521Z,135.93
2019-01-18T21:00:32.867Z,96.57
2019-01-18T21:03:19.937Z,195.30
2019-01-18T21:05:54.404Z,84.87
2019-01-18T21:08:40.606Z,87.33
2019-01-18T21:11:27.434Z,114.53
2019-01-18T21:14:29.922Z,77.23
2019-01-18T21:17:19.275Z,87.00
2019-01-18T21:20:08.605Z,86.07
2019-01-18T21:23:02.544Z,91.07
2019-01-18T21:25:35.704Z,87.20
2019-01-18T21:28:30.584Z,112.95
2019-01-18T21:31:21.507Z,90.93
2019-01-18T21:34:13.218Z,88.47
2019-01-18T21:37:29.326Z,76.67
2019-01-18T21:40:22.015Z,86.75
2019-01-18T21:43:08.899Z,91.03
2019-01-18T21:45:59.981Z,83.47
2019-01-18T21:48:34.369Z,80.37
2019-01-18T21:51:21.031Z,74.23
2019-01-18T21:54:14.448Z,75.20
2019-01-18T21:57:01.057Z,82.33
2019-01-18T21:59:56.601Z,75.97
2019-01-18T22:02:40.378Z,83.70
2019-01-18T22:05:43.969Z,76.07
2019-01-18T22:08:31.978Z,85.73
2019-01-18T22:11:12.293Z,92.50
2019-01-18T22:14:14.771Z,83.57
2019-01-18T22:17:04.111Z,91.50
2019-01-18T22:19:46.979Z,83.00
2019-01-18T22:22:33.282Z,77.37
2019-01-18T22:25:32.113Z,78.95
2019-01-18T22:28:19.270Z,86.03
2019-01-18T22:30:57.702Z,73.43
2019-01-18T22:33:41.179Z,77.17
2019-01-18T22:36:29.328Z,77.17
2019-01-18T22:39:12.579Z,75.93
2019-01-18T22:41:52.733Z,84.37
2019-01-18T22:44:26.749Z,84.10
2019-01-18T22:47:15.756Z,74.53
2019-01-18T22:50:12.716Z,72.77
2019-01-18T22:53:10.843Z,70.03
2019-01-18T22:55:48.301Z,74.63
2019-01-18T22:58:25.283Z,76.40
2019-01-18T23:03:52.268Z,84.60
2019-01-18T23:06:44.565Z,76.97
2019-01-18T23:09:44.277Z,87.33
2019-01-18T23:12:18.354Z,84.50
2019-01-18T23:14:49.901Z,85.37
2019-01-18T23:17:58.572Z,78.57
2019-01-18T23:20:38.880Z,88.30
2019-01-18T23:23:35.354Z,76.27
2019-01-18T23:26:20.674Z,76.43
2019-01-18T23:29:06.880Z,80.73
2019-01-18T23:34:13.362Z,80.50
2019-01-18T23:36:48.779Z,74.10
2019-01-18T23:39:32.206Z,82.02
2019-01-18T23:42:15.243Z,72.23
2019-01-18T23:45:00.432Z,77.20
2019-01-18T23:47:40.548Z,63.60
2019-01-18T23:50:20.713Z,76.57
2019-01-18T23:53:05.494Z,72.50
2019-01-18T23:55:56.402Z,66.23
2019-01-18T23:58:40.157Z,59.17
